Time;durP1;ratioP1;P1;durP2;ratioP2;P2;SDS_P1;SDS_P2;PMS_P1;PMS_P2;Temp;Humidity;BMP_temperature;BMP_pressure;BME280_temperature;BME280_humidity;BME280_pressure;Samples;Min_cycle;Max_cycle;Signal;HPM_P1;HPM_P2
2024/03/17 00:01:47;;;;;;;3.27;1.20;;;3.30;99.90;3.10;101185.00;;;;4904991;28;115493;-64
2024/03/17 00:04:13;;;;;;;1.57;1.23;;;3.30;99.90;3.10;101184.00;;;;4903045;28;116963;-65
2024/03/17 00:06:38;;;;;;;1.83;0.97;;;3.40;99.90;3.10;101194.00;;;;4903384;28;110793;-65
2024/03/17 00:09:06;;;;;;;3.40;1.87;;;3.30;99.90;3.10;101190.00;;;;4901767;28;108064;-64
2024/03/17 00:11:33;;;;;;;1.40;1.10;;;3.30;99.90;3.00;101192.00;;;;4904780;28;90365;-64
2024/03/17 00:13:59;;;;;;;1.20;1.07;;;3.30;99.90;3.00;101192.00;;;;4904769;28;88480;-64
2024/03/17 00:16:24;;;;;;;1.97;1.63;;;3.30;99.90;3.00;101189.00;;;;4902543;28;110687;-64
2024/03/17 00:18:50;;;;;;;2.47;1.20;;;3.30;99.90;3.00;101186.00;;;;4903115;28;87763;-64
2024/03/17 00:21:16;;;;;;;2.27;1.50;;;3.30;99.90;3.00;101184.00;;;;4900603;28;117618;-64
2024/03/17 00:23:41;;;;;;;1.20;1.10;;;3.20;99.90;2.90;101181.00;;;;4902225;28;115566;-65
2024/03/17 00:26:07;;;;;;;2.30;1.73;;;3.20;99.90;2.90;101174.00;;;;4908065;28;88691;-64
2024/03/17 00:28:33;;;;;;;3.37;1.33;;;3.20;99.90;2.90;101198.00;;;;4904369;28;87875;-64
2024/03/17 00:30:59;;;;;;;3.27;1.53;;;3.20;99.90;2.80;101187.00;;;;4904611;28;118509;-64
2024/03/17 00:33:25;;;;;;;4.63;1.40;;;3.10;99.90;2.80;101188.00;;;;4902727;28;89275;-65
2024/03/17 00:35:51;;;;;;;3.90;1.63;;;3.10;99.90;2.80;101184.00;;;;4905105;28;88394;-64
2024/03/17 00:38:17;;;;;;;2.40;1.53;;;3.10;99.90;2.80;101192.00;;;;4903248;28;96780;-64
2024/03/17 00:40:44;;;;;;;3.10;1.43;;;3.10;99.90;2.70;101199.00;;;;4900644;28;88133;-64
2024/03/17 00:43:11;;;;;;;4.17;2.50;;;3.00;99.90;2.70;101190.00;;;;4903594;28;88000;-64
2024/03/17 00:45:37;;;;;;;6.73;1.60;;;3.20;99.90;2.70;101191.00;;;;4910900;28;87731;-65
2024/03/17 00:48:03;;;;;;;2.40;1.43;;;3.00;99.90;2.70;101186.00;;;;4907326;28;88328;-64
2024/03/17 00:50:29;;;;;;;3.53;1.77;;;3.00;99.90;2.60;101191.00;;;;4907169;28;91911;-64
2024/03/17 00:52:55;;;;;;;4.17;1.40;;;2.90;99.90;2.60;101188.00;;;;4908621;28;88035;-65
2024/03/17 00:55:21;;;;;;;2.37;1.80;;;3.60;99.90;2.60;101182.00;;;;4900177;28;88762;-64
2024/03/17 00:57:47;;;;;;;2.23;1.47;;;2.80;99.90;2.60;101182.00;;;;4906346;28;87867;-64
2024/03/17 01:00:15;;;;;;;2.93;1.63;;;2.90;99.90;2.50;101188.00;;;;4902276;28;118383;-65
2024/03/17 01:02:40;;;;;;;2.47;1.57;;;3.00;99.90;2.50;101195.00;;;;4897073;28;88450;-64
2024/03/17 01:05:07;;;;;;;2.23;1.73;;;2.90;99.90;2.50;101184.00;;;;4900343;28;94970;-64
2024/03/17 01:07:34;;;;;;;2.70;1.97;;;2.80;99.90;2.50;101185.00;;;;4900331;28;98757;-64
2024/03/17 01:10:00;;;;;;;3.67;1.60;;;2.80;99.90;2.40;101190.00;;;;4903425;28;88965;-63
2024/03/17 01:12:26;;;;;;;3.80;2.30;;;2.70;99.90;2.40;101171.00;;;;4910418;28;88784;-63
2024/03/17 01:14:52;;;;;;;4.03;2.63;;;2.70;99.90;2.40;101185.00;;;;4907356;28;88094;-64
2024/03/17 01:17:19;;;;;;;3.10;1.97;;;2.60;99.90;2.40;101189.00;;;;4905671;28;108807;-64
2024/03/17 01:19:45;;;;;;;4.23;2.20;;;2.60;99.90;2.30;101187.00;;;;4904051;28;89968;-64
2024/03/17 01:22:11;;;;;;;0.90;0.90;;;2.60;99.90;2.30;101185.00;;;;4916629;28;89317;-64
2024/03/17 01:24:39;;;;;;;1.90;1.20;;;2.60;99.90;2.30;101181.00;;;;4905973;28;110122;-64
2024/03/17 01:27:05;;;;;;;2.90;1.77;;;2.60;99.90;2.30;101191.00;;;;4905409;28;87891;-64
2024/03/17 01:29:30;;;;;;;2.30;2.10;;;2.60;99.90;2.30;101185.00;;;;4905346;28;117544;-64
2024/03/17 01:31:56;;;;;;;2.37;1.90;;;2.50;99.90;2.30;101192.00;;;;4899503;28;117326;-64
2024/03/17 01:34:22;;;;;;;4.00;1.50;;;2.50;99.90;2.30;101194.00;;;;4901781;28;108976;-64
2024/03/17 01:36:48;;;;;;;2.80;2.03;;;2.50;99.90;2.30;101189.00;;;;4901558;28;87157;-64
2024/03/17 01:39:15;;;;;;;3.70;2.30;;;2.50;99.90;2.20;101188.00;;;;4900181;28;118110;-63
2024/03/17 01:41:41;;;;;;;2.13;1.73;;;2.60;99.90;2.30;101188.00;;;;4903643;28;88916;-64
2024/03/17 01:44:07;;;;;;;2.60;1.77;;;2.50;99.90;2.20;101183.00;;;;4903656;28;92363;-64
2024/03/17 01:46:33;;;;;;;2.90;1.43;;;2.50;99.90;2.20;101196.00;;;;4903777;28;108186;-65
2024/03/17 01:48:59;;;;;;;2.87;2.23;;;2.50;99.90;2.20;101192.00;;;;4896246;28;116713;-63
2024/03/17 01:51:25;;;;;;;2.37;1.93;;;2.70;99.90;2.20;101186.00;;;;4903736;28;113515;-65
2024/03/17 01:53:51;;;;;;;3.37;2.07;;;2.50;99.90;2.20;101184.00;;;;4902729;28;100659;-63
2024/03/17 01:56:17;;;;;;;4.00;1.80;;;2.50;99.90;2.20;101184.00;;;;4900761;28;109377;-64
2024/03/17 01:58:46;;;;;;;4.10;2.40;;;2.50;99.90;2.10;101188.00;;;;4896956;28;118137;-64
2024/03/17 02:01:14;;;;;;;4.20;1.97;;;2.40;99.90;2.10;101182.00;;;;4901505;28;117373;-64
2024/03/17 02:03:41;;;;;;;3.70;1.77;;;2.40;99.90;2.10;101185.00;;;;4902469;28;87851;-64
2024/03/17 02:06:09;;;;;;;5.40;2.13;;;2.40;99.90;2.00;101195.00;;;;4905858;28;88031;-64
2024/03/17 02:08:53;;;;;;;2.93;2.20;;;2.40;99.90;2.00;101198.00;;;;4897941;28;89714;-64
2024/03/17 02:11:26;;;;;;;1.77;1.50;;;2.30;99.90;2.00;101199.00;;;;4904037;28;89213;-64
2024/03/17 02:13:53;;;;;;;2.67;1.77;;;2.30;99.90;2.00;101199.00;;;;4901433;28;87733;-63
2024/03/17 02:16:20;;;;;;;1.70;1.57;;;2.30;99.90;2.00;101200.00;;;;4897842;28;87570;-63
2024/03/17 02:18:45;;;;;;;2.80;1.90;;;2.30;99.90;1.90;101197.00;;;;4902189;28;88592;-63
2024/03/17 02:21:13;;;;;;;3.97;2.00;;;2.30;99.90;1.90;101186.00;;;;4903791;28;88894;-64
2024/03/17 02:23:38;;;;;;;2.90;2.30;;;2.20;99.90;1.90;101200.00;;;;4899900;28;87783;-64
2024/03/17 02:26:04;;;;;;;2.60;1.90;;;2.90;99.90;1.90;101200.00;;;;4898811;28;86705;-65
2024/03/17 02:28:39;;;;;;;2.73;1.77;;;2.10;99.90;1.90;101198.00;;;;4901136;28;118274;-63
2024/03/17 02:31:07;;;;;;;2.07;1.70;;;2.90;99.90;1.80;101195.00;;;;4901408;28;87894;-64
2024/03/17 02:33:33;;;;;;;3.17;2.23;;;2.10;99.90;1.80;101183.00;;;;4902604;28;102361;-64
2024/03/17 02:35:59;;;;;;;2.23;1.70;;;2.20;99.90;1.80;101187.00;;;;4899647;28;89026;-64
2024/03/17 02:41:09;;;;;;;1.77;1.60;;;2.20;99.90;1.70;101187.00;;;;4903817;28;87999;-64
2024/03/17 02:43:35;;;;;;;3.13;2.37;;;2.00;99.90;1.70;101188.00;;;;4905362;28;87804;-63
2024/03/17 02:46:04;;;;;;;3.33;1.47;;;2.00;99.90;1.70;101178.00;;;;4898945;28;87901;-65
2024/03/17 02:48:30;;;;;;;3.10;2.00;;;2.00;99.90;1.70;101179.00;;;;4900116;28;88342;-64
2024/03/17 02:50:56;;;;;;;2.83;1.50;;;2.00;99.90;1.70;101189.00;;;;4902767;28;92343;-65
2024/03/17 02:53:22;;;;;;;7.77;2.33;;;1.90;99.90;1.60;101194.00;;;;4905078;28;109214;-65
2024/03/17 02:55:48;;;;;;;2.23;1.80;;;1.90;99.90;1.60;101186.00;;;;4898382;28;109131;-64
2024/03/17 02:58:13;;;;;;;3.40;2.33;;;2.00;99.90;1.60;101193.00;;;;4903249;28;119426;-64
2024/03/17 03:00:40;;;;;;;6.00;1.73;;;1.90;99.90;1.60;101182.00;;;;4900598;28;118248;-64
2024/03/17 03:03:05;;;;;;;2.17;1.90;;;2.00;99.90;1.50;101180.00;;;;4908059;28;87862;-65
2024/03/17 03:05:31;;;;;;;3.40;2.20;;;1.80;99.90;1.50;101185.00;;;;4898576;28;107603;-64
2024/03/17 03:07:57;;;;;;;2.97;1.80;;;1.80;99.90;1.50;101188.00;;;;4903680;28;117917;-64
2024/03/17 03:10:23;;;;;;;2.47;2.00;;;1.70;99.90;1.50;101183.00;;;;4899288;28;88832;-64
2024/03/17 03:12:49;;;;;;;3.07;1.90;;;1.80;99.90;1.50;101181.00;;;;4904877;28;87709;-64
2024/03/17 03:15:15;;;;;;;1.87;1.73;;;1.80;99.90;1.50;101181.00;;;;4900164;28;87085;-64
2024/03/17 03:17:40;;;;;;;2.57;2.20;;;1.80;99.90;1.50;101181.00;;;;4899681;28;117134;-64
2024/03/17 03:20:08;;;;;;;2.80;2.10;;;1.80;99.90;1.50;101184.00;;;;4901163;28;88636;-63
2024/03/17 03:22:33;;;;;;;1.77;1.67;;;1.80;99.90;1.40;101191.00;;;;4900559;28;100790;-64
2024/03/17 03:24:59;;;;;;;2.83;2.27;;;1.70;99.90;1.40;101184.00;;;;4899249;28;91810;-66
2024/03/17 03:27:25;;;;;;;3.00;2.20;;;1.80;99.90;1.40;101185.00;;;;4898680;28;88571;-65
2024/03/17 03:29:50;;;;;;;4.70;2.90;;;1.60;99.90;1.40;101195.00;;;;4899655;28;117868;-65
2024/03/17 03:32:17;;;;;;;2.63;2.07;;;1.60;99.90;1.40;101194.00;;;;4902758;28;110393;-65
2024/03/17 03:34:43;;;;;;;4.80;2.50;;;1.70;99.90;1.30;101194.00;;;;4902510;28;88130;-65
2024/03/17 03:37:10;;;;;;;4.53;2.03;;;1.70;99.90;1.30;101196.00;;;;4900013;28;93166;-62
2024/03/17 03:39:36;;;;;;;2.90;1.93;;;1.70;99.90;1.30;101201.00;;;;4907276;28;88399;-65
2024/03/17 03:42:02;;;;;;;1.97;1.57;;;1.70;99.90;1.30;101187.00;;;;4900069;28;99857;-65
2024/03/17 03:44:28;;;;;;;4.83;2.67;;;1.60;99.90;1.30;101208.00;;;;4896045;28;107404;-65
2024/03/17 03:46:58;;;;;;;2.53;1.53;;;1.50;99.90;1.20;101202.00;;;;4902784;28;90053;-65
2024/03/17 03:49:25;;;;;;;5.33;2.80;;;1.60;99.90;1.20;101192.00;;;;4901059;28;89304;-65
2024/03/17 03:51:50;;;;;;;1.60;1.50;;;1.60;99.90;1.20;101202.00;;;;4903755;28;87913;-65
2024/03/17 03:54:16;;;;;;;5.70;2.10;;;1.50;99.90;1.20;101201.00;;;;4902057;28;108388;-64
2024/03/17 03:56:42;;;;;;;2.67;2.43;;;1.50;99.90;1.20;101199.00;;;;4898678;28;118185;-64
2024/03/17 03:59:07;;;;;;;2.30;1.87;;;1.50;99.90;1.10;101205.00;;;;4898111;28;115673;-63
2024/03/17 04:01:33;;;;;;;3.50;2.13;;;1.50;99.90;1.10;101206.00;;;;4899449;28;101038;-64
2024/03/17 04:03:59;;;;;;;4.53;2.33;;;1.40;99.90;1.10;101197.00;;;;4904400;28;103529;-63
2024/03/17 04:06:24;;;;;;;4.27;2.97;;;1.50;99.90;1.10;101207.00;;;;4902347;28;117029;-65
2024/03/17 04:08:50;;;;;;;4.23;2.17;;;1.40;99.90;1.00;101203.00;;;;4902182;28;87851;-63
2024/03/17 04:11:16;;;;;;;1.93;1.60;;;1.40;99.90;1.00;101207.00;;;;4900703;28;88946;-64
2024/03/17 04:13:42;;;;;;;3.20;1.77;;;1.40;99.90;1.00;101204.00;;;;4900758;28;108485;-63
2024/03/17 04:16:08;;;;;;;3.07;2.27;;;1.30;99.90;0.90;101201.00;;;;4903405;28;89629;-63
2024/03/17 04:18:37;;;;;;;4.73;2.47;;;1.30;99.90;0.90;101201.00;;;;4897573;28;87726;-63
2024/03/17 04:21:06;;;;;;;2.50;2.30;;;1.20;99.90;0.80;101195.00;;;;4903417;28;87748;-63
2024/03/17 04:23:33;;;;;;;3.27;2.90;;;1.20;99.90;0.80;101200.00;;;;4900556;28;87757;-64
2024/03/17 04:26:00;;;;;;;4.20;2.97;;;1.20;99.90;0.80;101199.00;;;;4899322;28;88221;-63
2024/03/17 04:28:27;;;;;;;4.00;2.73;;;1.10;99.90;0.70;101207.00;;;;4906493;28;90690;-63
2024/03/17 04:30:52;;;;;;;5.40;3.27;;;1.20;99.90;0.70;101224.00;;;;4903745;28;88216;-63
2024/03/17 04:33:18;;;;;;;5.30;2.87;;;1.10;99.90;0.70;101210.00;;;;4900821;28;108646;-63
2024/03/17 04:35:44;;;;;;;5.70;3.10;;;1.00;99.90;0.70;101205.00;;;;4905341;28;92830;-63
2024/03/17 04:38:10;;;;;;;6.67;3.00;;;1.10;99.90;0.70;101217.00;;;;4898207;28;116950;-63
2024/03/17 04:40:42;;;;;;;3.70;2.53;;;1.00;99.90;0.70;101208.00;;;;4901772;28;104467;-63
2024/03/17 04:43:08;;;;;;;5.23;3.07;;;1.10;99.90;0.60;101214.00;;;;4902590;28;87996;-63
2024/03/17 04:45:34;;;;;;;3.93;2.17;;;1.00;99.90;0.60;101217.00;;;;4900773;28;112403;-63
2024/03/17 04:47:59;;;;;;;3.90;2.70;;;1.10;99.90;0.60;101201.00;;;;4902645;28;90377;-62
2024/03/17 04:50:26;;;;;;;3.33;2.53;;;1.00;99.90;0.60;101212.00;;;;4898452;28;110782;-62
2024/03/17 04:52:52;;;;;;;6.73;3.13;;;0.80;99.90;0.60;101207.00;;;;4904440;28;86921;-63
2024/03/17 04:55:18;;;;;;;6.03;3.37;;;1.00;99.90;0.60;101213.00;;;;4900053;28;105653;-63
2024/03/17 04:57:45;;;;;;;5.70;2.63;;;0.90;99.90;0.60;101219.00;;;;4905325;28;87807;-63
2024/03/17 05:00:13;;;;;;;3.83;2.13;;;1.00;99.90;0.60;101211.00;;;;4907483;28;89335;-63
2024/03/17 05:02:40;;;;;;;3.27;2.50;;;1.00;99.90;0.60;101206.00;;;;4906631;28;87866;-62
2024/03/17 05:05:08;;;;;;;4.43;2.53;;;1.00;99.90;0.60;101213.00;;;;4903425;28;88604;-62
2024/03/17 05:07:34;;;;;;;3.93;2.73;;;1.00;99.90;0.60;101215.00;;;;4907061;28;88001;-63
2024/03/17 05:10:00;;;;;;;3.10;2.60;;;0.90;99.90;0.50;101225.00;;;;4903966;28;88235;-63
2024/03/17 05:12:26;;;;;;;4.20;3.27;;;1.00;99.90;0.50;101229.00;;;;4901097;28;89081;-64
2024/03/17 05:14:51;;;;;;;6.13;3.23;;;0.80;99.90;0.50;101222.00;;;;4904062;28;116869;-64
2024/03/17 05:17:17;;;;;;;8.90;3.67;;;0.80;99.90;0.40;101230.00;;;;4899881;28;115113;-64
2024/03/17 05:19:43;;;;;;;4.27;3.57;;;1.20;99.90;0.40;101229.00;;;;4898304;28;93990;-63
2024/03/17 05:22:13;;;;;;;4.57;2.47;;;0.50;99.90;0.40;101235.00;;;;4693748;28;10001205;-64
2024/03/17 05:24:38;;;;;;;4.50;2.10;;;0.80;99.90;0.30;101239.00;;;;4381488;28;10000635;-64
2024/03/17 05:27:05;;;;;;;4.47;2.90;;;0.70;99.90;0.30;101231.00;;;;4896986;28;107641;-64
2024/03/17 05:29:31;;;;;;;8.10;3.13;;;0.70;99.90;0.40;101241.00;;;;4897110;28;88840;-64
2024/03/17 05:31:56;;;;;;;4.47;3.07;;;0.70;99.90;0.40;101236.00;;;;4899102;28;116289;-63
2024/03/17 05:34:23;;;;;;;4.83;3.03;;;0.80;99.90;0.50;101237.00;;;;4897816;28;91378;-64
2024/03/17 05:36:50;;;;;;;3.90;2.43;;;0.80;99.90;0.50;101245.00;;;;4899219;28;88033;-63
2024/03/17 05:39:16;;;;;;;4.40;3.23;;;2.40;99.90;0.50;101244.00;;;;4894363;28;109986;-64
2024/03/17 05:41:43;;;;;;;3.97;3.07;;;0.80;99.90;0.60;101248.00;;;;4898379;28;88008;-64
2024/03/17 05:44:09;;;;;;;5.07;3.10;;;0.90;99.90;0.70;101246.00;;;;4897688;28;87806;-64
2024/03/17 05:46:35;;;;;;;3.27;2.83;;;1.00;99.90;0.80;101241.00;;;;4895687;28;88428;-63
2024/03/17 05:49:01;;;;;;;2.83;2.53;;;1.10;99.90;0.90;101239.00;;;;4896410;28;118556;-63
2024/03/17 05:51:27;;;;;;;5.63;3.03;;;1.20;99.90;1.00;101248.00;;;;4895585;28;118167;-64
2024/03/17 05:53:53;;;;;;;4.30;3.00;;;1.30;99.90;1.10;101247.00;;;;4902056;28;88409;-63
2024/03/17 05:56:19;;;;;;;3.57;2.97;;;1.40;99.90;1.30;101253.00;;;;4894505;28;108215;-63
2024/03/17 05:58:44;;;;;;;2.97;2.63;;;1.50;99.90;1.40;101259.00;;;;4897699;28;115471;-63
2024/03/17 06:01:11;;;;;;;4.87;3.03;;;1.60;99.90;1.50;101261.00;;;;4895531;28;117619;-64
2024/03/17 06:03:37;;;;;;;4.00;3.10;;;2.70;99.90;1.70;101262.00;;;;4900431;28;88767;-64
2024/03/17 06:06:07;;;;;;;5.63;3.43;;;1.90;99.90;1.80;101267.00;;;;4898449;28;87178;-64
2024/03/17 06:08:33;;;;;;;6.93;3.13;;;2.00;99.90;2.00;101276.00;;;;4897414;28;89334;-63
2024/03/17 06:11:00;;;;;;;7.00;3.13;;;2.30;99.90;2.10;101268.00;;;;4895854;28;88291;-63
2024/03/17 06:13:26;;;;;;;3.33;2.47;;;2.30;99.90;2.30;101274.00;;;;4895770;28;88977;-64
2024/03/17 06:15:52;;;;;;;3.13;2.33;;;2.50;99.90;2.50;101270.00;;;;4898749;28;87915;-63
2024/03/17 06:18:18;;;;;;;4.93;2.53;;;2.70;99.90;2.70;101278.00;;;;4900134;28;116665;-65
2024/03/17 06:20:46;;;;;;;3.07;2.10;;;2.80;99.90;2.90;101283.00;;;;4897227;28;88326;-64
2024/03/17 06:23:13;;;;;;;3.37;2.83;;;3.10;99.90;3.10;101278.00;;;;4901444;28;87673;-64
2024/03/17 06:25:47;;;;;;;2.93;2.20;;;3.20;99.90;3.20;101276.00;;;;4899424;28;96922;-64
2024/03/17 06:28:16;;;;;;;2.73;2.50;;;3.40;99.90;3.40;101288.00;;;;4898432;28;88930;-64
2024/03/17 06:30:43;;;;;;;6.77;2.53;;;3.60;99.90;3.60;101291.00;;;;4898557;28;88503;-64
2024/03/17 06:33:13;;;;;;;3.33;2.33;;;3.80;99.90;3.80;101292.00;;;;4893951;28;87511;-64
2024/03/17 06:35:39;;;;;;;3.57;2.00;;;3.90;99.90;4.00;101293.00;;;;4896389;28;88116;-64
2024/03/17 06:38:09;;;;;;;2.07;1.87;;;4.20;99.90;4.30;101284.00;;;;4896461;28;97793;-63
2024/03/17 06:40:36;;;;;;;4.27;2.40;;;4.40;99.90;4.50;101304.00;;;;4896319;28;89730;-64
2024/03/17 06:43:02;;;;;;;2.73;1.97;;;4.90;99.90;4.70;101298.00;;;;4897258;28;92703;-64
2024/03/17 06:45:27;;;;;;;6.40;2.57;;;5.00;99.90;5.00;101298.00;;;;4898051;28;109618;-65
2024/03/17 06:47:53;;;;;;;3.43;2.47;;;5.10;99.90;5.20;101302.00;;;;4900171;28;118086;-64
2024/03/17 06:50:19;;;;;;;4.07;2.40;;;5.40;99.90;5.40;101306.00;;;;4898795;28;88419;-65
2024/03/17 06:52:44;;;;;;;2.43;2.23;;;5.50;99.90;5.70;101299.00;;;;4899028;28;104148;-64
2024/03/17 06:55:12;;;;;;;5.97;2.83;;;5.70;99.90;5.90;101302.00;;;;4899403;28;107763;-64
2024/03/17 06:57:38;;;;;;;2.43;1.77;;;6.30;99.90;6.10;101307.00;;;;4897974;28;88739;-64
2024/03/17 07:00:05;;;;;;;2.93;1.57;;;6.80;99.90;6.30;101302.00;;;;4900666;28;88756;-64
2024/03/17 07:02:32;;;;;;;2.33;1.57;;;6.50;99.90;6.50;101314.00;;;;4898969;28;88796;-65
2024/03/17 07:04:58;;;;;;;3.20;1.80;;;6.90;99.90;6.70;101319.00;;;;4892718;28;88084;-64
2024/03/17 07:07:28;;;;;;;2.70;1.87;;;6.90;99.90;6.90;101308.00;;;;4898143;28;89703;-65
2024/03/17 07:09:54;;;;;;;4.07;2.37;;;7.10;99.90;7.10;101319.00;;;;4896281;28;88603;-65
2024/03/17 07:12:19;;;;;;;3.13;1.70;;;7.20;99.90;7.30;101308.00;;;;4898713;28;87578;-64
2024/03/17 07:14:45;;;;;;;3.50;1.63;;;7.40;99.90;7.60;101308.00;;;;4897397;28;88198;-64
2024/03/17 07:17:11;;;;;;;8.03;1.97;;;7.70;99.90;7.80;101310.00;;;;4897544;28;117048;-64
2024/03/17 07:19:36;;;;;;;5.17;2.20;;;7.90;99.90;8.10;101316.00;;;;4898647;28;117827;-64
2024/03/17 07:22:03;;;;;;;3.20;1.50;;;8.20;99.90;8.40;101326.00;;;;4893833;28;110863;-64
2024/03/17 07:24:30;;;;;;;4.17;1.87;;;8.40;99.90;8.60;101323.00;;;;4897258;28;88335;-64
2024/03/17 07:26:55;;;;;;;3.43;1.70;;;8.30;99.90;8.70;101330.00;;;;4900021;28;89609;-64
2024/03/17 07:29:21;;;;;;;6.63;1.40;;;8.90;99.90;8.90;101330.00;;;;4895781;28;117024;-64
2024/03/17 07:31:47;;;;;;;3.87;1.93;;;9.10;99.90;9.10;101331.00;;;;4901343;28;87762;-64
2024/03/17 07:34:12;;;;;;;0.93;0.80;;;9.20;99.90;9.30;101341.00;;;;4901129;28;87880;-64
2024/03/17 07:36:39;;;;;;;2.77;1.20;;;9.40;99.90;9.60;101337.00;;;;4906014;28;118746;-64
2024/03/17 07:39:07;;;;;;;2.13;1.30;;;9.60;99.90;9.70;101342.00;;;;4901065;28;90497;-64
2024/03/17 07:41:32;;;;;;;2.00;1.37;;;9.90;99.90;9.90;101343.00;;;;4900137;28;88179;-65
2024/03/17 07:43:58;;;;;;;3.13;1.33;;;10.00;99.90;10.10;101330.00;;;;4903806;28;87767;-64
2024/03/17 07:46:24;;;;;;;4.03;2.30;;;10.20;99.90;10.20;101341.00;;;;4898387;28;116818;-65
2024/03/17 07:48:49;;;;;;;1.23;1.13;;;10.40;99.90;10.30;101346.00;;;;4898834;28;117087;-64
2024/03/17 07:51:16;;;;;;;1.60;0.70;;;10.50;99.90;10.60;101345.00;;;;4896891;28;89072;-63
2024/03/17 07:53:44;;;;;;;1.23;1.00;;;10.70;99.90;10.80;101350.00;;;;4901934;28;88334;-63
2024/03/17 07:56:14;;;;;;;1.60;1.50;;;10.90;99.90;10.90;101339.00;;;;4895866;28;89165;-63
2024/03/17 07:58:43;;;;;;;2.40;0.73;;;11.10;99.90;11.10;101345.00;;;;4901046;28;87714;-64
2024/03/17 08:01:12;;;;;;;2.67;1.33;;;11.20;99.90;11.00;101343.00;;;;4899386;28;94845;-64
2024/03/17 08:03:40;;;;;;;2.03;1.33;;;11.20;99.90;10.80;101352.00;;;;4897496;28;87733;-64
2024/03/17 08:06:08;;;;;;;1.20;1.10;;;11.10;99.90;10.60;101344.00;;;;4897310;28;100619;-64
2024/03/17 08:08:34;;;;;;;2.57;1.33;;;10.90;99.90;10.40;101357.00;;;;4899569;28;89210;-63
2024/03/17 08:11:03;;;;;;;0.90;0.87;;;10.80;99.90;10.20;101338.00;;;;4897768;28;99519;-63
2024/03/17 08:13:34;;;;;;;4.70;1.13;;;10.50;99.90;10.00;101351.00;;;;4906135;28;90308;-64
2024/03/17 08:16:03;;;;;;;4.00;1.10;;;10.30;99.90;9.90;101351.00;;;;4893011;28;89704;-63
2024/03/17 08:18:29;;;;;;;3.97;1.23;;;11.00;99.90;9.90;101346.00;;;;4895860;28;89063;-63
2024/03/17 08:20:55;;;;;;;1.70;1.00;;;10.20;99.90;10.10;101345.00;;;;4896924;28;88076;-63
2024/03/17 08:23:24;;;;;;;2.63;0.87;;;10.20;99.90;10.30;101352.00;;;;4900376;28;88878;-64
2024/03/17 08:25:57;;;;;;;2.87;1.50;;;10.40;99.90;10.70;101345.00;;;;4893142;28;88595;-64
2024/03/17 08:28:24;;;;;;;1.60;1.07;;;10.70;99.90;10.90;101346.00;;;;4893229;28;87941;-63
2024/03/17 08:31:02;;;;;;;2.50;1.37;;;11.00;99.90;11.10;101351.00;;;;4898341;28;87877;-63
2024/03/17 08:33:29;;;;;;;1.23;1.03;;;11.10;99.90;11.30;101343.00;;;;4894318;28;87437;-64
2024/03/17 08:36:06;;;;;;;3.43;1.23;;;11.30;99.90;11.60;101355.00;;;;4894499;28;88703;-64
2024/03/17 08:38:34;;;;;;;0.67;0.60;;;11.60;99.50;11.80;101347.00;;;;4903274;28;88731;-63
2024/03/17 08:41:05;;;;;;;2.47;1.07;;;11.90;98.70;11.90;101346.00;;;;4904034;28;95883;-64
2024/03/17 08:43:32;;;;;;;4.70;1.00;;;12.00;97.00;11.90;101341.00;;;;4895998;28;88040;-64
2024/03/17 08:46:03;;;;;;;7.10;0.83;;;12.00;96.50;11.80;101338.00;;;;4898907;28;88597;-64
2024/03/17 08:48:30;;;;;;;0.97;0.60;;;12.00;95.80;11.80;101339.00;;;;4894653;28;88424;-63
2024/03/17 08:50:58;;;;;;;3.87;0.63;;;13.10;96.30;11.80;101331.00;;;;4895132;28;87975;-63
2024/03/17 08:53:24;;;;;;;5.47;0.97;;;11.80;95.90;11.70;101339.00;;;;4893352;28;88161;-63
2024/03/17 08:55:50;;;;;;;2.63;1.17;;;11.80;95.70;11.80;101336.00;;;;4894370;28;88803;-65
2024/03/17 08:58:17;;;;;;;1.47;0.90;;;11.80;95.70;11.80;101329.00;;;;4894190;28;117863;-64
2024/03/17 09:00:43;;;;;;;3.73;0.70;;;11.90;95.50;11.80;101333.00;;;;4895185;28;88057;-65
2024/03/17 09:03:10;;;;;;;1.40;0.70;;;11.90;94.30;11.60;101339.00;;;;4891982;28;108349;-64
2024/03/17 09:05:36;;;;;;;1.13;1.03;;;11.70;93.60;11.50;101334.00;;;;4894909;28;89124;-64
2024/03/17 09:08:03;;;;;;;2.60;0.83;;;11.60;93.90;11.60;101342.00;;;;4894088;28;112278;-63
2024/03/17 09:10:28;;;;;;;1.13;0.77;;;11.60;94.50;11.60;101331.00;;;;4903695;28;100217;-64
2024/03/17 09:12:54;;;;;;;3.30;0.93;;;11.60;94.40;11.60;101332.00;;;;4893074;28;88783;-65
2024/03/17 09:15:20;;;;;;;1.90;0.57;;;11.70;94.20;11.50;101331.00;;;;4894441;28;118010;-63
2024/03/17 09:17:46;;;;;;;1.90;1.20;;;11.70;94.20;11.50;101324.00;;;;4898361;28;87944;-63
2024/03/17 09:20:14;;;;;;;1.43;0.93;;;11.50;94.20;11.40;101332.00;;;;4897610;28;99727;-63
2024/03/17 09:22:43;;;;;;;1.90;0.90;;;11.70;94.20;11.40;101325.00;;;;4897475;28;87365;-64
2024/03/17 09:25:09;;;;;;;1.80;0.90;;;11.40;93.80;11.30;101322.00;;;;4893853;28;119251;-64
2024/03/17 09:27:36;;;;;;;3.17;0.97;;;11.40;93.80;11.30;101323.00;;;;4897169;28;117989;-63
2024/03/17 09:30:06;;;;;;;2.60;1.00;;;11.40;94.20;11.40;101319.00;;;;4892496;28;89140;-63
2024/03/17 09:32:32;;;;;;;0.63;0.63;;;11.60;94.30;11.40;101318.00;;;;4896151;28;87863;-63
2024/03/17 09:34:58;;;;;;;2.70;1.07;;;11.40;93.60;11.40;101322.00;;;;4897369;28;87931;-65
2024/03/17 09:37:23;;;;;;;2.23;0.83;;;11.40;93.40;11.40;101316.00;;;;4892232;28;116364;-63
2024/03/17 09:39:51;;;;;;;2.13;0.97;;;11.50;92.90;11.40;101307.00;;;;4895264;28;110306;-63
2024/03/17 09:42:19;;;;;;;1.90;0.83;;;11.50;93.10;11.50;101313.00;;;;4895740;28;88058;-63
2024/03/17 09:44:49;;;;;;;5.80;1.27;;;11.50;92.90;11.50;101305.00;;;;4892544;28;89265;-64
2024/03/17 09:47:21;;;;;;;6.40;1.30;;;11.60;92.70;11.80;101308.00;;;;4893226;28;87220;-64
2024/03/17 09:49:48;;;;;;;3.90;0.97;;;11.70;92.80;11.80;101305.00;;;;4893469;28;88472;-64
2024/03/17 09:52:24;;;;;;;0.43;0.43;;;11.80;91.10;11.60;101306.00;;;;4896746;28;89122;-64
2024/03/17 09:55:01;;;;;;;0.83;0.77;;;11.80;90.90;11.70;101299.00;;;;4894014;28;88816;-64
2024/03/17 09:57:28;;;;;;;3.87;0.90;;;11.70;91.60;12.00;101300.00;;;;4892951;28;89056;-64
2024/03/17 09:59:55;;;;;;;3.03;0.80;;;12.00;91.40;12.10;101301.00;;;;4894974;28;88139;-65
2024/03/17 10:02:21;;;;;;;1.07;0.57;;;12.10;90.40;12.30;101296.00;;;;4895858;28;106535;-63
2024/03/17 10:04:47;;;;;;;4.97;1.03;;;12.30;88.50;12.60;101290.00;;;;4895826;28;92876;-64
2024/03/17 10:07:14;;;;;;;1.37;0.67;;;12.50;88.50;13.10;101294.00;;;;4894163;28;109179;-64
2024/03/17 10:09:41;;;;;;;3.13;0.67;;;12.90;86.30;13.50;101288.00;;;;4890883;28;87740;-65
2024/03/17 10:12:28;;;;;;;0.87;0.47;;;13.30;84.20;13.70;101303.00;;;;4895800;28;100207;-64
2024/03/17 10:14:59;;;;;;;2.53;0.70;;;13.60;80.70;14.00;101305.00;;;;4894144;28;88091;-64
2024/03/17 10:17:32;;;;;;;0.30;0.30;;;13.80;82.50;14.30;101305.00;;;;4892444;28;87924;-65
2024/03/17 10:20:23;;;;;;;2.43;0.67;;;14.20;82.00;14.40;101301.00;;;;4893170;28;88760;-64
2024/03/17 10:23:05;;;;;;;1.70;0.40;;;14.30;79.40;14.30;101303.00;;;;4895817;28;88135;-64
2024/03/17 10:25:34;;;;;;;0.10;0.10;;;14.30;77.20;14.10;101294.00;;;;4893238;28;88834;-64
2024/03/17 10:28:01;;;;;;;0.70;0.43;;;14.10;74.70;14.00;101303.00;;;;4893253;28;87987;-63
2024/03/17 10:30:30;;;;;;;0.70;0.63;;;14.00;76.30;13.80;101303.00;;;;4893795;28;97398;-64
2024/03/17 10:33:00;;;;;;;4.47;1.13;;;13.90;76.30;13.60;101306.00;;;;4894757;28;87814;-64
2024/03/17 10:35:34;;;;;;;1.93;1.00;;;13.70;75.70;13.30;101301.00;;;;4893948;28;88922;-64
2024/03/17 10:38:02;;;;;;;0.50;0.40;;;13.40;75.80;13.50;101312.00;;;;4893982;28;87975;-64
2024/03/17 10:40:30;;;;;;;0.80;0.70;;;13.30;76.40;13.60;101303.00;;;;4891649;28;88017;-63
2024/03/17 10:42:57;;;;;;;4.50;0.70;;;13.50;76.40;13.60;101312.00;;;;4896681;28;91284;-63
2024/03/17 10:45:24;;;;;;;1.83;0.67;;;13.50;73.60;13.40;101314.00;;;;4895676;28;90475;-64
2024/03/17 10:47:51;;;;;;;0.50;0.47;;;13.50;74.90;13.30;101307.00;;;;4893883;28;88984;-64
2024/03/17 10:50:23;;;;;;;0.77;0.30;;;13.40;74.30;13.10;101314.00;;;;4893484;28;88021;-63
2024/03/17 10:52:51;;;;;;;1.07;0.60;;;13.20;74.30;13.00;101302.00;;;;4893854;28;87954;-64
2024/03/17 10:55:26;;;;;;;1.23;0.53;;;13.00;73.50;13.00;101309.00;;;;4893035;28;87957;-63
2024/03/17 10:57:57;;;;;;;0.93;0.37;;;12.60;72.10;13.00;101317.00;;;;4892687;28;107086;-64